Terminal Aerodrome Forecast
Issued by NWS Burlington, VT

Home | Current Version | Previous Version | Text Only | Print | Product List | Glossary On
Versions: 1 2 3 4 5 6 7 8 9 10 11 12 13 14
000
FTUS41 KBTV 221731 AAB
TAFBTV
TAF AMD
KBTV 221731Z 2217/2318 34004KT P6SM OVC035
     FM222000 VRB03KT P6SM VCSH OVC025
     FM222200 16003KT 2SM -SNPL OVC015
     FM230100 16006KT 4SM -RAPL OVC012
     FM230300 16009G14KT 5SM -RA BR OVC015
     FM230500 17012G19KT P6SM VCSH OVC020
     FM231400 16010KT 5SM -RA BKN006 OVC015=

USA.gov is the U.S. government's official web portal to all federal, state and local government web resources and services.